sensor_id;sensor_type;location;lat;lon;timestamp;temperature;humidity
27922;DHT22;15261;50.356;10.340;2023-11-19T00:00:06;5.70;99.90
27922;DHT22;15261;50.356;10.340;2023-11-19T00:02:36;5.70;99.90
27922;DHT22;15261;50.356;10.340;2023-11-19T00:05:02;5.70;99.90
27922;DHT22;15261;50.356;10.340;2023-11-19T00:07:28;5.70;99.90
27922;DHT22;15261;50.356;10.340;2023-11-19T00:09:54;5.70;99.90
27922;DHT22;15261;50.356;10.340;2023-11-19T00:12:20;5.60;99.90
27922;DHT22;15261;50.356;10.340;2023-11-19T00:14:46;5.60;99.90
27922;DHT22;15261;50.356;10.340;2023-11-19T00:17:12;5.70;99.90
27922;DHT22;15261;50.356;10.340;2023-11-19T00:19:37;5.70;99.90
27922;DHT22;15261;50.356;10.340;2023-11-19T00:22:03;5.70;99.90
27922;DHT22;15261;50.356;10.340;2023-11-19T00:24:29;5.70;99.90
27922;DHT22;15261;50.356;10.340;2023-11-19T00:26:56;5.70;99.90
27922;DHT22;15261;50.356;10.340;2023-11-19T00:29:22;5.70;99.90
27922;DHT22;15261;50.356;10.340;2023-11-19T00:31:47;5.70;99.90
27922;DHT22;15261;50.356;10.340;2023-11-19T00:34:13;5.80;99.90
27922;DHT22;15261;50.356;10.340;2023-11-19T00:36:39;5.80;99.90
27922;DHT22;15261;50.356;10.340;2023-11-19T00:39:04;5.80;99.90
27922;DHT22;15261;50.356;10.340;2023-11-19T00:41:31;5.70;99.90
27922;DHT22;15261;50.356;10.340;2023-11-19T00:43:56;5.70;99.90
27922;DHT22;15261;50.356;10.340;2023-11-19T00:46:22;5.70;99.90
27922;DHT22;15261;50.356;10.340;2023-11-19T00:48:48;5.70;99.90
27922;DHT22;15261;50.356;10.340;2023-11-19T00:51:13;5.70;99.90
27922;DHT22;15261;50.356;10.340;2023-11-19T00:53:39;5.70;99.90
27922;DHT22;15261;50.356;10.340;2023-11-19T00:56:05;5.70;99.90
27922;DHT22;15261;50.356;10.340;2023-11-19T00:58:31;5.80;99.90
27922;DHT22;15261;50.356;10.340;2023-11-19T01:00:57;5.80;99.90
27922;DHT22;15261;50.356;10.340;2023-11-19T01:03:23;5.90;99.90
27922;DHT22;15261;50.356;10.340;2023-11-19T01:05:49;5.90;99.90
27922;DHT22;15261;50.356;10.340;2023-11-19T01:08:14;5.90;99.90
27922;DHT22;15261;50.356;10.340;2023-11-19T01:10:41;6.00;99.90
27922;DHT22;15261;50.356;10.340;2023-11-19T01:13:07;6.00;99.90
27922;DHT22;15261;50.356;10.340;2023-11-19T01:15:32;6.10;99.90
27922;DHT22;15261;50.356;10.340;2023-11-19T01:17:58;6.00;99.90
27922;DHT22;15261;50.356;10.340;2023-11-19T01:20:24;6.10;99.90
27922;DHT22;15261;50.356;10.340;2023-11-19T01:22:50;6.00;99.90
27922;DHT22;15261;50.356;10.340;2023-11-19T01:25:16;6.00;99.90
27922;DHT22;15261;50.356;10.340;2023-11-19T01:27:42;6.00;99.90
27922;DHT22;15261;50.356;10.340;2023-11-19T01:30:08;6.00;99.90
27922;DHT22;15261;50.356;10.340;2023-11-19T01:32:38;6.10;99.90
27922;DHT22;15261;50.356;10.340;2023-11-19T01:35:04;6.00;99.90
27922;DHT22;15261;50.356;10.340;2023-11-19T01:37:30;6.00;99.90
27922;DHT22;15261;50.356;10.340;2023-11-19T01:39:57;6.00;99.90
27922;DHT22;15261;50.356;10.340;2023-11-19T01:42:23;6.00;99.90
27922;DHT22;15261;50.356;10.340;2023-11-19T01:45:04;6.00;99.90
27922;DHT22;15261;50.356;10.340;2023-11-19T01:47:33;5.90;99.90
27922;DHT22;15261;50.356;10.340;2023-11-19T01:50:00;6.00;99.90
27922;DHT22;15261;50.356;10.340;2023-11-19T01:52:27;6.00;99.90
27922;DHT22;15261;50.356;10.340;2023-11-19T01:54:53;6.00;99.90
27922;DHT22;15261;50.356;10.340;2023-11-19T01:57:21;6.10;99.90
27922;DHT22;15261;50.356;10.340;2023-11-19T01:59:50;6.10;99.90
27922;DHT22;15261;50.356;10.340;2023-11-19T04:42:47;6.50;99.90
27922;DHT22;15261;50.356;10.340;2023-11-19T04:45:12;6.50;99.90
27922;DHT22;15261;50.356;10.340;2023-11-19T04:47:42;6.50;99.90
27922;DHT22;15261;50.356;10.340;2023-11-19T04:50:08;6.50;99.90
27922;DHT22;15261;50.356;10.340;2023-11-19T04:52:37;6.50;99.90
27922;DHT22;15261;50.356;10.340;2023-11-19T04:55:05;6.60;99.90
27922;DHT22;15261;50.356;10.340;2023-11-19T04:57:49;6.50;99.90
27922;DHT22;15261;50.356;10.340;2023-11-19T05:00:14;6.60;99.90
27922;DHT22;15261;50.356;10.340;2023-11-19T05:02:40;6.60;99.90
27922;DHT22;15261;50.356;10.340;2023-11-19T05:05:06;6.60;99.90
27922;DHT22;15261;50.356;10.340;2023-11-19T05:07:31;6.60;99.90
27922;DHT22;15261;50.356;10.340;2023-11-19T05:09:57;6.60;99.90
27922;DHT22;15261;50.356;10.340;2023-11-19T05:12:23;6.60;99.90
27922;DHT22;15261;50.356;10.340;2023-11-19T05:14:48;6.60;99.90
27922;DHT22;15261;50.356;10.340;2023-11-19T05:17:17;6.70;99.90
27922;DHT22;15261;50.356;10.340;2023-11-19T05:19:43;6.70;99.90
27922;DHT22;15261;50.356;10.340;2023-11-19T05:22:09;6.70;99.90
27922;DHT22;15261;50.356;10.340;2023-11-19T05:24:34;6.70;99.90
27922;DHT22;15261;50.356;10.340;2023-11-19T05:27:01;6.70;99.90
27922;DHT22;15261;50.356;10.340;2023-11-19T05:29:27;6.70;99.90
27922;DHT22;15261;50.356;10.340;2023-11-19T05:31:53;6.80;99.90
27922;DHT22;15261;50.356;10.340;2023-11-19T05:34:20;6.70;99.90
27922;DHT22;15261;50.356;10.340;2023-11-19T05:36:46;6.80;99.90
27922;DHT22;15261;50.356;10.340;2023-11-19T05:39:12;6.80;99.90
27922;DHT22;15261;50.356;10.340;2023-11-19T05:41:37;6.80;99.90
27922;DHT22;15261;50.356;10.340;2023-11-19T05:44:03;6.80;99.90
27922;DHT22;15261;50.356;10.340;2023-11-19T05:46:28;6.90;99.90
27922;DHT22;15261;50.356;10.340;2023-11-19T05:48:54;6.90;99.90
27922;DHT22;15261;50.356;10.340;2023-11-19T05:51:19;6.90;99.90
27922;DHT22;15261;50.356;10.340;2023-11-19T05:53:45;6.90;99.90
27922;DHT22;15261;50.356;10.340;2023-11-19T05:56:11;6.90;99.90
27922;DHT22;15261;50.356;10.340;2023-11-19T05:58:37;6.90;99.90
27922;DHT22;15261;50.356;10.340;2023-11-19T06:01:02;6.90;99.90
27922;DHT22;15261;50.356;10.340;2023-11-19T06:03:29;7.00;99.90
27922;DHT22;15261;50.356;10.340;2023-11-19T06:05:54;7.00;99.90
27922;DHT22;15261;50.356;10.340;2023-11-19T06:08:20;7.00;99.90
27922;DHT22;15261;50.356;10.340;2023-11-19T06:10:46;7.00;99.90
27922;DHT22;15261;50.356;10.340;2023-11-19T06:13:15;7.00;99.90
27922;DHT22;15261;50.356;10.340;2023-11-19T06:15:42;7.10;99.90
27922;DHT22;15261;50.356;10.340;2023-11-19T06:18:08;7.20;99.90
27922;DHT22;15261;50.356;10.340;2023-11-19T06:20:34;7.20;99.90
27922;DHT22;15261;50.356;10.340;2023-11-19T06:23:00;7.20;99.90
27922;DHT22;15261;50.356;10.340;2023-11-19T06:25:26;7.20;99.90
27922;DHT22;15261;50.356;10.340;2023-11-19T06:27:52;7.20;99.90
27922;DHT22;15261;50.356;10.340;2023-11-19T06:30:18;7.20;99.90
27922;DHT22;15261;50.356;10.340;2023-11-19T06:32:43;7.30;99.90
27922;DHT22;15261;50.356;10.340;2023-11-19T06:35:09;7.30;99.90
27922;DHT22;15261;50.356;10.340;2023-11-19T06:37:35;7.30;99.90
27922;DHT22;15261;50.356;10.340;2023-11-19T06:40:01;7.30;99.90
27922;DHT22;15261;50.356;10.340;2023-11-19T06:42:28;7.30;99.90
27922;DHT22;15261;50.356;10.340;2023-11-19T06:44:53;7.30;99.90
27922;DHT22;15261;50.356;10.340;2023-11-19T06:47:19;7.30;99.90
27922;DHT22;15261;50.356;10.340;2023-11-19T06:49:45;7.30;99.90
27922;DHT22;15261;50.356;10.340;2023-11-19T06:52:10;7.30;99.90
27922;DHT22;15261;50.356;10.340;2023-11-19T06:54:37;7.30;99.90
27922;DHT22;15261;50.356;10.340;2023-11-19T06:57:03;7.30;99.90
27922;DHT22;15261;50.356;10.340;2023-11-19T06:59:30;7.30;99.90
27922;DHT22;15261;50.356;10.340;2023-11-19T07:01:56;7.30;99.90
27922;DHT22;15261;50.356;10.340;2023-11-19T07:04:21;7.30;99.90
27922;DHT22;15261;50.356;10.340;2023-11-19T07:06:47;7.40;99.90
27922;DHT22;15261;50.356;10.340;2023-11-19T07:09:13;7.40;99.90
27922;DHT22;15261;50.356;10.340;2023-11-19T07:11:40;7.50;99.90
27922;DHT22;15261;50.356;10.340;2023-11-19T07:14:09;7.60;99.90
27922;DHT22;15261;50.356;10.340;2023-11-19T07:16:35;7.60;99.90
27922;DHT22;15261;50.356;10.340;2023-11-19T07:19:03;7.60;99.90
27922;DHT22;15261;50.356;10.340;2023-11-19T07:21:28;7.60;99.90
27922;DHT22;15261;50.356;10.340;2023-11-19T07:23:57;7.70;99.90
27922;DHT22;15261;50.356;10.340;2023-11-19T07:26:23;7.80;99.90
27922;DHT22;15261;50.356;10.340;2023-11-19T07:28:49;7.80;99.90
27922;DHT22;15261;50.356;10.340;2023-11-19T07:31:15;7.90;99.90
27922;DHT22;15261;50.356;10.340;2023-11-19T07:33:41;7.90;99.90
27922;DHT22;15261;50.356;10.340;2023-11-19T07:36:10;8.00;99.90
27922;DHT22;15261;50.356;10.340;2023-11-19T07:38:36;8.00;99.90
27922;DHT22;15261;50.356;10.340;2023-11-19T07:41:02;8.00;99.90
27922;DHT22;15261;50.356;10.340;2023-11-19T07:43:31;8.10;99.90
27922;DHT22;15261;50.356;10.340;2023-11-19T07:46:28;8.20;99.90
27922;DHT22;15261;50.356;10.340;2023-11-19T07:51:44;8.40;99.90
27922;DHT22;15261;50.356;10.340;2023-11-19T07:54:31;8.40;99.90
27922;DHT22;15261;50.356;10.340;2023-11-19T07:56:57;8.40;99.90
27922;DHT22;15261;50.356;10.340;2023-11-19T07:59:22;8.50;99.90
27922;DHT22;15261;50.356;10.340;2023-11-19T08:01:57;8.40;99.90
27922;DHT22;15261;50.356;10.340;2023-11-19T08:04:23;8.40;99.90
27922;DHT22;15261;50.356;10.340;2023-11-19T08:06:49;8.40;99.90
27922;DHT22;15261;50.356;10.340;2023-11-19T08:09:49;8.50;99.90
27922;DHT22;15261;50.356;10.340;2023-11-19T08:12:14;8.60;99.90
27922;DHT22;15261;50.356;10.340;2023-11-19T08:14:43;8.80;99.90
27922;DHT22;15261;50.356;10.340;2023-11-19T08:17:09;8.90;99.90
27922;DHT22;15261;50.356;10.340;2023-11-19T08:19:35;9.00;99.90
27922;DHT22;15261;50.356;10.340;2023-11-19T08:22:03;9.30;99.90
27922;DHT22;15261;50.356;10.340;2023-11-19T08:24:28;9.50;99.90
27922;DHT22;15261;50.356;10.340;2023-11-19T08:26:54;9.60;99.90
27922;DHT22;15261;50.356;10.340;2023-11-19T08:29:20;9.60;99.90
27922;DHT22;15261;50.356;10.340;2023-11-19T08:31:46;9.60;99.90
27922;DHT22;15261;50.356;10.340;2023-11-19T08:34:12;9.60;99.90
27922;DHT22;15261;50.356;10.340;2023-11-19T08:36:37;9.60;99.90
27922;DHT22;15261;50.356;10.340;2023-11-19T08:39:08;9.80;99.90
27922;DHT22;15261;50.356;10.340;2023-11-19T08:41:34;9.90;99.90
27922;DHT22;15261;50.356;10.340;2023-11-19T08:43:59;10.00;99.90
27922;DHT22;15261;50.356;10.340;2023-11-19T08:46:28;10.10;99.90
27922;DHT22;15261;50.356;10.340;2023-11-19T08:48:54;10.20;99.90
27922;DHT22;15261;50.356;10.340;2023-11-19T08:51:22;10.30;99.90
27922;DHT22;15261;50.356;10.340;2023-11-19T08:53:50;10.60;99.90
27922;DHT22;15261;50.356;10.340;2023-11-19T08:56:15;10.70;99.90
27922;DHT22;15261;50.356;10.340;2023-11-19T08:58:41;10.70;99.90
27922;DHT22;15261;50.356;10.340;2023-11-19T09:01:08;10.70;99.90
27922;DHT22;15261;50.356;10.340;2023-11-19T09:03:35;10.60;99.90
27922;DHT22;15261;50.356;10.340;2023-11-19T09:06:02;10.60;99.90
27922;DHT22;15261;50.356;10.340;2023-11-19T09:08:28;10.70;99.90
27922;DHT22;15261;50.356;10.340;2023-11-19T09:11:08;10.70;99.90
27922;DHT22;15261;50.356;10.340;2023-11-19T09:13:35;10.70;99.90
27922;DHT22;15261;50.356;10.340;2023-11-19T09:16:04;10.60;99.90
27922;DHT22;15261;50.356;10.340;2023-11-19T09:18:40;10.60;99.90
27922;DHT22;15261;50.356;10.340;2023-11-19T09:21:08;10.60;99.90
27922;DHT22;15261;50.356;10.340;2023-11-19T09:23:35;10.70;99.90
27922;DHT22;15261;50.356;10.340;2023-11-19T09:26:05;10.80;99.90
27922;DHT22;15261;50.356;10.340;2023-11-19T09:28:31;10.80;99.90
27922;DHT22;15261;50.356;10.340;2023-11-19T09:30:58;10.90;99.90
27922;DHT22;15261;50.356;10.340;2023-11-19T09:33:37;11.00;99.90
27922;DHT22;15261;50.356;10.340;2023-11-19T09:36:03;11.10;99.90
27922;DHT22;15261;50.356;10.340;2023-11-19T09:38:37;11.40;99.90
27922;DHT22;15261;50.356;10.340;2023-11-19T09:41:30;11.90;99.90
27922;DHT22;15261;50.356;10.340;2023-11-19T09:44:01;12.20;99.90
27922;DHT22;15261;50.356;10.340;2023-11-19T09:46:38;12.40;99.90
27922;DHT22;15261;50.356;10.340;2023-11-19T09:49:05;12.60;99.90
27922;DHT22;15261;50.356;10.340;2023-11-19T09:51:33;12.50;99.90
27922;DHT22;15261;50.356;10.340;2023-11-19T09:53:58;12.50;99.90
27922;DHT22;15261;50.356;10.340;2023-11-19T09:56:29;12.50;99.90
27922;DHT22;15261;50.356;10.340;2023-11-19T09:58:56;12.50;99.90
27922;DHT22;15261;50.356;10.340;2023-11-19T10:01:21;12.30;99.90
27922;DHT22;15261;50.356;10.340;2023-11-19T10:03:47;12.20;99.90
27922;DHT22;15261;50.356;10.340;2023-11-19T10:06:17;12.00;99.90
27922;DHT22;15261;50.356;10.340;2023-11-19T10:08:51;11.80;99.90
27922;DHT22;15261;50.356;10.340;2023-11-19T10:11:17;11.80;99.90
27922;DHT22;15261;50.356;10.340;2023-11-19T10:13:43;11.70;99.90
27922;DHT22;15261;50.356;10.340;2023-11-19T10:16:12;11.70;99.90
27922;DHT22;15261;50.356;10.340;2023-11-19T10:18:49;11.70;99.90
27922;DHT22;15261;50.356;10.340;2023-11-19T10:21:24;11.80;99.90
27922;DHT22;15261;50.356;10.340;2023-11-19T10:23:54;11.80;99.90
27922;DHT22;15261;50.356;10.340;2023-11-19T10:26:32;11.90;99.90
27922;DHT22;15261;50.356;10.340;2023-11-19T10:28:59;11.80;99.90
27922;DHT22;15261;50.356;10.340;2023-11-19T10:31:25;11.60;99.90
27922;DHT22;15261;50.356;10.340;2023-11-19T10:33:52;11.50;99.90
27922;DHT22;15261;50.356;10.340;2023-11-19T10:36:18;11.40;99.90
27922;DHT22;15261;50.356;10.340;2023-11-19T10:38:56;11.40;99.90
27922;DHT22;15261;50.356;10.340;2023-11-19T10:41:32;11.40;99.90
27922;DHT22;15261;50.356;10.340;2023-11-19T10:43:59;11.40;99.90
27922;DHT22;15261;50.356;10.340;2023-11-19T10:46:55;11.50;99.90
27922;DHT22;15261;50.356;10.340;2023-11-19T10:49:21;11.50;99.90
27922;DHT22;15261;50.356;10.340;2023-11-19T10:51:46;11.70;99.90
27922;DHT22;15261;50.356;10.340;2023-11-19T10:54:15;11.80;99.90
27922;DHT22;15261;50.356;10.340;2023-11-19T10:56:59;12.00;99.90
27922;DHT22;15261;50.356;10.340;2023-11-19T10:59:46;12.10;99.90
27922;DHT22;15261;50.356;10.340;2023-11-19T11:02:14;12.20;99.90
27922;DHT22;15261;50.356;10.340;2023-11-19T11:04:47;12.20;99.90
27922;DHT22;15261;50.356;10.340;2023-11-19T11:07:14;12.20;99.90
27922;DHT22;15261;50.356;10.340;2023-11-19T11:13:16;12.00;99.90
27922;DHT22;15261;50.356;10.340;2023-11-19T11:15:42;11.90;99.90
27922;DHT22;15261;50.356;10.340;2023-11-19T11:18:17;11.80;99.90
27922;DHT22;15261;50.356;10.340;2023-11-19T11:20:46;11.70;99.90
27922;DHT22;15261;50.356;10.340;2023-11-19T11:38:35;12.20;99.90
27922;DHT22;15261;50.356;10.340;2023-11-19T11:44:02;12.30;99.90
27922;DHT22;15261;50.356;10.340;2023-11-19T11:46:55;12.40;99.90
27922;DHT22;15261;50.356;10.340;2023-11-19T11:52:23;12.20;99.90
27922;DHT22;15261;50.356;10.340;2023-11-19T11:57:52;12.20;99.90
27922;DHT22;15261;50.356;10.340;2023-11-19T12:03:32;12.10;99.90
27922;DHT22;15261;50.356;10.340;2023-11-19T12:05:58;12.10;99.90
27922;DHT22;15261;50.356;10.340;2023-11-19T12:08:28;12.10;99.90
27922;DHT22;15261;50.356;10.340;2023-11-19T12:14:00;12.00;99.90
27922;DHT22;15261;50.356;10.340;2023-11-19T12:16:28;12.00;99.90
27922;DHT22;15261;50.356;10.340;2023-11-19T12:18:54;12.00;99.90
27922;DHT22;15261;50.356;10.340;2023-11-19T12:21:30;12.10;99.90
27922;DHT22;15261;50.356;10.340;2023-11-19T12:24:07;12.30;99.90
27922;DHT22;15261;50.356;10.340;2023-11-19T12:26:36;12.60;99.90
27922;DHT22;15261;50.356;10.340;2023-11-19T12:29:07;12.80;99.90
27922;DHT22;15261;50.356;10.340;2023-11-19T12:31:33;13.00;99.90
27922;DHT22;15261;50.356;10.340;2023-11-19T12:34:13;13.10;99.90
27922;DHT22;15261;50.356;10.340;2023-11-19T12:36:38;13.20;99.90
27922;DHT22;15261;50.356;10.340;2023-11-19T12:39:04;13.20;99.90
27922;DHT22;15261;50.356;10.340;2023-11-19T12:41:31;13.20;99.90
27922;DHT22;15261;50.356;10.340;2023-11-19T12:47:21;13.50;99.90
27922;DHT22;15261;50.356;10.340;2023-11-19T12:49:59;13.60;99.90
27922;DHT22;15261;50.356;10.340;2023-11-19T12:52:29;13.70;99.90
27922;DHT22;15261;50.356;10.340;2023-11-19T12:54:55;13.60;99.90
27922;DHT22;15261;50.356;10.340;2023-11-19T12:57:38;13.50;99.90
27922;DHT22;15261;50.356;10.340;2023-11-19T13:00:05;13.40;99.90
27922;DHT22;15261;50.356;10.340;2023-11-19T13:03:11;13.40;99.90
27922;DHT22;15261;50.356;10.340;2023-11-19T13:05:36;13.40;99.90
27922;DHT22;15261;50.356;10.340;2023-11-19T13:08:06;13.40;99.90
27922;DHT22;15261;50.356;10.340;2023-11-19T13:10:51;13.20;99.90
27922;DHT22;15261;50.356;10.340;2023-11-19T13:13:23;13.00;99.90
27922;DHT22;15261;50.356;10.340;2023-11-19T13:15:49;13.00;99.90
27922;DHT22;15261;50.356;10.340;2023-11-19T13:18:20;12.90;99.90
27922;DHT22;15261;50.356;10.340;2023-11-19T13:20:49;12.80;99.90
27922;DHT22;15261;50.356;10.340;2023-11-19T13:23:23;12.70;99.90
27922;DHT22;15261;50.356;10.340;2023-11-19T13:25:49;12.60;99.90
27922;DHT22;15261;50.356;10.340;2023-11-19T13:28:36;12.60;99.90
27922;DHT22;15261;50.356;10.340;2023-11-19T13:31:02;12.60;99.90
27922;DHT22;15261;50.356;10.340;2023-11-19T13:36:46;12.50;99.90
27922;DHT22;15261;50.356;10.340;2023-11-19T13:39:12;12.50;99.90
27922;DHT22;15261;50.356;10.340;2023-11-19T13:41:40;12.50;99.90
27922;DHT22;15261;50.356;10.340;2023-11-19T13:44:06;12.50;99.90
27922;DHT22;15261;50.356;10.340;2023-11-19T13:46:31;12.50;99.90
27922;DHT22;15261;50.356;10.340;2023-11-19T13:48:57;12.40;99.90
27922;DHT22;15261;50.356;10.340;2023-11-19T13:51:22;12.30;99.90
27922;DHT22;15261;50.356;10.340;2023-11-19T13:53:48;12.30;99.90
27922;DHT22;15261;50.356;10.340;2023-11-19T13:59:40;12.00;99.90
27922;DHT22;15261;50.356;10.340;2023-11-19T14:02:33;11.80;99.90
27922;DHT22;15261;50.356;10.340;2023-11-19T14:05:11;11.60;99.90
27922;DHT22;15261;50.356;10.340;2023-11-19T14:07:37;11.50;99.90
27922;DHT22;15261;50.356;10.340;2023-11-19T14:10:03;11.40;99.90
27922;DHT22;15261;50.356;10.340;2023-11-19T14:12:30;11.40;99.90
27922;DHT22;15261;50.356;10.340;2023-11-19T14:18:04;11.30;99.90
27922;DHT22;15261;50.356;10.340;2023-11-19T14:20:30;11.20;99.90
27922;DHT22;15261;50.356;10.340;2023-11-19T14:22:56;11.00;99.90
27922;DHT22;15261;50.356;10.340;2023-11-19T14:25:21;10.90;99.90
27922;DHT22;15261;50.356;10.340;2023-11-19T14:27:48;10.80;99.90
27922;DHT22;15261;50.356;10.340;2023-11-19T14:30:17;10.80;99.90
27922;DHT22;15261;50.356;10.340;2023-11-19T14:32:43;10.70;99.90
27922;DHT22;15261;50.356;10.340;2023-11-19T14:35:11;10.60;99.90
27922;DHT22;15261;50.356;10.340;2023-11-19T14:37:36;10.50;99.90
27922;DHT22;15261;50.356;10.340;2023-11-19T14:40:03;10.60;99.90
27922;DHT22;15261;50.356;10.340;2023-11-19T14:42:35;10.60;99.90
27922;DHT22;15261;50.356;10.340;2023-11-19T14:45:01;10.50;99.90
27922;DHT22;15261;50.356;10.340;2023-11-19T14:47:26;10.50;99.90
27922;DHT22;15261;50.356;10.340;2023-11-19T14:49:55;10.40;99.90
27922;DHT22;15261;50.356;10.340;2023-11-19T14:52:25;10.20;99.90
27922;DHT22;15261;50.356;10.340;2023-11-19T14:54:50;10.10;99.90
27922;DHT22;15261;50.356;10.340;2023-11-19T14:57:19;10.00;99.90
27922;DHT22;15261;50.356;10.340;2023-11-19T14:59:44;10.00;99.90
27922;DHT22;15261;50.356;10.340;2023-11-19T15:02:11;10.00;99.90
27922;DHT22;15261;50.356;10.340;2023-11-19T15:04:41;10.00;99.90
27922;DHT22;15261;50.356;10.340;2023-11-19T15:07:09;10.10;99.90
27922;DHT22;15261;50.356;10.340;2023-11-19T15:09:57;10.20;99.90
27922;DHT22;15261;50.356;10.340;2023-11-19T15:12:23;10.40;99.90
27922;DHT22;15261;50.356;10.340;2023-11-19T15:15:08;10.40;99.90
27922;DHT22;15261;50.356;10.340;2023-11-19T15:17:40;10.40;99.90
27922;DHT22;15261;50.356;10.340;2023-11-19T15:23:22;10.40;99.90
27922;DHT22;15261;50.356;10.340;2023-11-19T15:25:47;10.40;99.90
27922;DHT22;15261;50.356;10.340;2023-11-19T15:28:15;10.40;99.90
27922;DHT22;15261;50.356;10.340;2023-11-19T15:30:44;10.40;99.90
27922;DHT22;15261;50.356;10.340;2023-11-19T15:33:09;10.40;99.90
27922;DHT22;15261;50.356;10.340;2023-11-19T15:35:35;10.30;99.90
27922;DHT22;15261;50.356;10.340;2023-11-19T15:38:00;10.30;99.90
27922;DHT22;15261;50.356;10.340;2023-11-19T15:40:29;10.30;99.90
27922;DHT22;15261;50.356;10.340;2023-11-19T15:42:55;10.30;99.90
27922;DHT22;15261;50.356;10.340;2023-11-19T15:45:45;10.30;99.90
27922;DHT22;15261;50.356;10.340;2023-11-19T15:48:10;10.30;99.90
27922;DHT22;15261;50.356;10.340;2023-11-19T15:50:39;10.20;99.90
27922;DHT22;15261;50.356;10.340;2023-11-19T15:53:04;10.10;99.90
27922;DHT22;15261;50.356;10.340;2023-11-19T15:55:30;10.10;99.90
27922;DHT22;15261;50.356;10.340;2023-11-19T15:57:56;10.10;99.90
27922;DHT22;15261;50.356;10.340;2023-11-19T16:00:22;10.10;99.90
27922;DHT22;15261;50.356;10.340;2023-11-19T16:02:49;10.20;99.90
27922;DHT22;15261;50.356;10.340;2023-11-19T16:12:26;10.00;99.90
27922;DHT22;15261;50.356;10.340;2023-11-19T16:14:52;9.90;99.90
27922;DHT22;15261;50.356;10.340;2023-11-19T16:17:18;9.70;99.90
27922;DHT22;15261;50.356;10.340;2023-11-19T16:19:44;9.60;99.90
27922;DHT22;15261;50.356;10.340;2023-11-19T16:22:09;9.60;99.90
27922;DHT22;15261;50.356;10.340;2023-11-19T16:24:38;9.50;99.90
27922;DHT22;15261;50.356;10.340;2023-11-19T16:27:04;9.50;99.90
27922;DHT22;15261;50.356;10.340;2023-11-19T16:29:42;9.40;99.90
27922;DHT22;15261;50.356;10.340;2023-11-19T16:32:16;9.40;99.90
27922;DHT22;15261;50.356;10.340;2023-11-19T16:34:41;9.40;99.90
27922;DHT22;15261;50.356;10.340;2023-11-19T16:37:14;9.50;99.90
27922;DHT22;15261;50.356;10.340;2023-11-19T16:39:41;9.50;99.90
27922;DHT22;15261;50.356;10.340;2023-11-19T16:42:08;9.50;99.90
27922;DHT22;15261;50.356;10.340;2023-11-19T16:44:33;9.60;99.90
27922;DHT22;15261;50.356;10.340;2023-11-19T16:47:00;9.70;99.90
27922;DHT22;15261;50.356;10.340;2023-11-19T16:50:07;9.80;99.90
27922;DHT22;15261;50.356;10.340;2023-11-19T17:20:30;9.70;99.90
27922;DHT22;15261;50.356;10.340;2023-11-19T17:26:32;9.40;99.90
27922;DHT22;15261;50.356;10.340;2023-11-19T17:29:01;9.30;99.90
27922;DHT22;15261;50.356;10.340;2023-11-19T17:31:35;9.20;99.90
27922;DHT22;15261;50.356;10.340;2023-11-19T17:34:03;9.20;99.90
27922;DHT22;15261;50.356;10.340;2023-11-19T17:36:40;9.10;99.90
27922;DHT22;15261;50.356;10.340;2023-11-19T17:39:26;9.00;99.90
27922;DHT22;15261;50.356;10.340;2023-11-19T17:41:52;9.00;99.90
27922;DHT22;15261;50.356;10.340;2023-11-19T17:44:17;8.90;99.90
27922;DHT22;15261;50.356;10.340;2023-11-19T17:46:43;8.90;99.90
27922;DHT22;15261;50.356;10.340;2023-11-19T17:49:09;8.80;99.90
27922;DHT22;15261;50.356;10.340;2023-11-19T17:51:35;8.80;99.90
27922;DHT22;15261;50.356;10.340;2023-11-19T17:54:01;8.80;99.90
27922;DHT22;15261;50.356;10.340;2023-11-19T17:56:30;8.80;99.90
27922;DHT22;15261;50.356;10.340;2023-11-19T17:58:56;8.80;99.90
27922;DHT22;15261;50.356;10.340;2023-11-19T18:01:22;8.90;99.90
27922;DHT22;15261;50.356;10.340;2023-11-19T18:03:48;9.00;99.90
27922;DHT22;15261;50.356;10.340;2023-11-19T18:06:17;9.00;99.90
27922;DHT22;15261;50.356;10.340;2023-11-19T18:08:44;9.10;99.90
27922;DHT22;15261;50.356;10.340;2023-11-19T18:11:09;9.10;99.90
27922;DHT22;15261;50.356;10.340;2023-11-19T18:13:35;9.20;99.90
27922;DHT22;15261;50.356;10.340;2023-11-19T18:16:04;9.20;99.90
27922;DHT22;15261;50.356;10.340;2023-11-19T18:18:33;9.30;99.90
27922;DHT22;15261;50.356;10.340;2023-11-19T18:20:59;9.30;99.90
27922;DHT22;15261;50.356;10.340;2023-11-19T18:23:28;9.30;99.90
27922;DHT22;15261;50.356;10.340;2023-11-19T18:25:53;9.40;99.90
27922;DHT22;15261;50.356;10.340;2023-11-19T18:28:19;9.40;99.90
27922;DHT22;15261;50.356;10.340;2023-11-19T18:30:55;9.50;99.90
27922;DHT22;15261;50.356;10.340;2023-11-19T18:33:21;9.50;99.90
27922;DHT22;15261;50.356;10.340;2023-11-19T18:35:52;9.60;99.90
27922;DHT22;15261;50.356;10.340;2023-11-19T18:38:19;9.60;99.90
27922;DHT22;15261;50.356;10.340;2023-11-19T18:40:44;9.60;99.90
27922;DHT22;15261;50.356;10.340;2023-11-19T18:43:14;9.60;99.90
27922;DHT22;15261;50.356;10.340;2023-11-19T18:45:39;9.60;99.90
27922;DHT22;15261;50.356;10.340;2023-11-19T18:48:07;9.60;99.90
27922;DHT22;15261;50.356;10.340;2023-11-19T18:50:33;9.60;99.90
27922;DHT22;15261;50.356;10.340;2023-11-19T18:52:59;9.60;99.90
27922;DHT22;15261;50.356;10.340;2023-11-19T18:55:25;9.60;99.90
27922;DHT22;15261;50.356;10.340;2023-11-19T18:57:51;9.60;99.90
27922;DHT22;15261;50.356;10.340;2023-11-19T19:00:17;9.60;99.90
27922;DHT22;15261;50.356;10.340;2023-11-19T19:02:42;9.60;99.90
27922;DHT22;15261;50.356;10.340;2023-11-19T19:05:10;9.60;99.90
27922;DHT22;15261;50.356;10.340;2023-11-19T19:07:35;9.60;99.90
27922;DHT22;15261;50.356;10.340;2023-11-19T19:10:01;9.60;99.90
27922;DHT22;15261;50.356;10.340;2023-11-19T19:12:27;9.70;99.90
27922;DHT22;15261;50.356;10.340;2023-11-19T19:14:53;9.60;99.90
27922;DHT22;15261;50.356;10.340;2023-11-19T19:17:21;9.60;99.90
27922;DHT22;15261;50.356;10.340;2023-11-19T19:19:47;9.40;99.90
27922;DHT22;15261;50.356;10.340;2023-11-19T19:22:14;9.30;99.90
27922;DHT22;15261;50.356;10.340;2023-11-19T19:24:39;9.30;99.90
27922;DHT22;15261;50.356;10.340;2023-11-19T19:27:05;9.30;99.90
27922;DHT22;15261;50.356;10.340;2023-11-19T19:29:30;9.30;99.90
27922;DHT22;15261;50.356;10.340;2023-11-19T19:31:56;9.20;99.90
27922;DHT22;15261;50.356;10.340;2023-11-19T19:34:23;9.20;99.90
27922;DHT22;15261;50.356;10.340;2023-11-19T19:36:51;9.10;99.90
27922;DHT22;15261;50.356;10.340;2023-11-19T19:39:17;9.00;99.90
27922;DHT22;15261;50.356;10.340;2023-11-19T19:41:43;9.00;99.90
27922;DHT22;15261;50.356;10.340;2023-11-19T19:44:09;9.10;99.90